CST,Max TemperatureF,Mean TemperatureF,Min TemperatureF,Max Dew PointF,MeanDew PointF,Min DewpointF,Max Humidity, Mean Humidity, Min Humidity, Max Sea Level PressureIn, Mean Sea Level PressureIn, Min Sea Level PressureIn, Max VisibilityMiles, Mean VisibilityMiles, Min VisibilityMiles, Max Wind SpeedMPH, Mean Wind SpeedMPH, Max Gust SpeedMPH,PrecipitationIn, CloudCover, Events, WindDirDegrees
2013-2-1,1,-6,-14,-8,-13,-18,85,67,47,30.13,30.06,29.99,10,10,4,13,7,,0.00,3,Snow,261
2013-2-2,14,2,-11,-4,-6,-15,85,67,45,30.04,29.98,29.88,10,10,5,6,1,,0.00,4,Snow,334
2013-2-3,12,2,-7,0,-4,-13,85,72,48,29.93,29.87,29.81,10,8,3,16,5,21,0.00,5,Snow,289
2013-2-4,14,-1,-16,-2,-9,-24,85,63,32,29.94,29.88,29.76,10,10,10,8,1,,0.00,2,,296
2013-2-5,19,6,-7,16,6,-13,93,81,57,30.02,29.77,29.60,10,6,1,12,3,17,0.03,6,Snow,275
2013-2-6,21,4,-14,19,3,-22,93,83,68,30.11,30.05,30.00,10,7,0,7,1,,0.03,5,Snow,147
2013-2-7,23,21,19,21,20,14,100,92,80,30.18,30.06,30.02,10,6,2,12,4,18,0.01,8,Snow,37
2013-2-8,26,13,0,14,6,-4,92,76,47,30.32,30.27,30.18,10,10,7,9,3,16,0.00,1,Snow,7
2013-2-9,23,10,-4,21,10,-8,100,85,68,30.28,30.13,29.98,10,8,3,9,2,16,0.00,5,Snow,162
2013-2-10,32,28,23,32,27,21,100,96,86,29.98,29.63,29.24,7,3,0,10,5,18,0.29,8,Rain-Snow,113
2013-2-11,32,26,21,32,25,18,100,91,80,29.88,29.52,29.22,10,6,1,17,6,24,0.11,8,Rain-Snow,288
2013-2-12,23,16,8,19,15,5,93,85,74,29.93,29.85,29.72,10,9,2,12,5,16,0.00,6,Snow,248
2013-2-13,35,20,5,28,20,3,100,87,75,29.72,29.63,29.58,10,8,2,6,1,,0.00,7,Rain-Snow,239
2013-2-14,30,22,12,28,20,9,100,84,68,29.99,29.74,29.56,10,6,1,15,5,22,0.01,8,Snow,326
2013-2-15,17,6,-4,7,2,-8,92,75,53,30.13,30.07,29.99,10,10,7,12,6,18,0.00,4,,296
2013-2-16,14,-1,-16,1,-10,-24,92,74,45,30.10,30.08,30.06,10,10,10,8,2,,0.00,2,,301
2013-2-17,21,-1,-23,9,-8,-29,85,62,39,30.09,29.99,29.80,10,10,10,9,2,,0.00,2,,153
2013-2-18,33,26,19,28,21,10,93,79,65,29.80,29.55,29.44,10,8,0,13,5,18,0.04,5,Snow,168
2013-2-19,26,14,3,23,2,-4,93,74,57,30.09,29.77,29.45,10,7,2,21,13,28,0.00,6,Snow,304
2013-2-20,21,10,-5,5,3,-9,85,70,50,30.36,30.27,30.10,10,10,7,14,8,21,0.00,3,Snow,334
2013-2-21,28,7,-14,18,4,-22,93,74,51,30.41,30.29,30.10,10,10,3,15,3,21,0.00,3,Snow,54
2013-2-22,26,20,14,23,19,12,93,88,80,30.10,29.86,29.75,10,4,1,14,7,18,0.12,8,Snow,65
2013-2-23,30,22,14,27,21,12,100,87,74,29.84,29.76,29.71,10,8,2,9,2,,0.00,8,Snow,277
2013-2-24,30,26,23,25,21,18,93,76,64,30.07,29.99,29.85,10,10,10,7,2,,0.00,8,,326
2013-2-25,32,22,12,27,22,10,100,85,74,30.09,30.06,30.02,10,9,5,5,0,,0.00,6,,159
2013-2-26,32,28,24,25,23,21,86,77,69,30.04,29.92,29.81,10,9,5,15,5,25,0.00,6,,51
2013-2-27,32,30,28,27,24,21,86,79,69,29.87,29.78,29.73,10,7,1,15,10,23,0.00,8,Snow,5
2013-2-28,30,24,19,25,18,12,86,72,55,30.16,30.03,29.87,10,10,7,15,9,23,0.00,8,,8